sensor_id;sensor_type;location;lat;lon;timestamp;P1;durP1;ratioP1;P2;durP2;ratioP2
5690;SDS011;2870;42.680;23.364;2023-12-20T00:02:06;137.05;;;71.72;;
5690;SDS011;2870;42.680;23.364;2023-12-20T00:04:33;133.60;;;70.97;;
5690;SDS011;2870;42.680;23.364;2023-12-20T00:06:59;137.48;;;70.43;;
5690;SDS011;2870;42.680;23.364;2023-12-20T00:09:26;115.35;;;66.75;;
5690;SDS011;2870;42.680;23.364;2023-12-20T00:11:53;124.05;;;63.22;;
5690;SDS011;2870;42.680;23.364;2023-12-20T00:14:19;128.02;;;66.20;;
5690;SDS011;2870;42.680;23.364;2023-12-20T00:16:46;129.30;;;64.43;;
5690;SDS011;2870;42.680;23.364;2023-12-20T00:19:14;125.07;;;66.93;;
5690;SDS011;2870;42.680;23.364;2023-12-20T00:21:41;133.52;;;68.40;;
5690;SDS011;2870;42.680;23.364;2023-12-20T00:24:07;112.13;;;63.65;;
5690;SDS011;2870;42.680;23.364;2023-12-20T00:26:34;125.28;;;63.65;;
5690;SDS011;2870;42.680;23.364;2023-12-20T00:29:00;129.45;;;67.15;;
5690;SDS011;2870;42.680;23.364;2023-12-20T00:31:27;121.32;;;66.72;;
5690;SDS011;2870;42.680;23.364;2023-12-20T00:33:54;126.53;;;63.38;;
5690;SDS011;2870;42.680;23.364;2023-12-20T00:36:22;126.53;;;70.13;;
5690;SDS011;2870;42.680;23.364;2023-12-20T00:38:49;131.45;;;64.63;;
5690;SDS011;2870;42.680;23.364;2023-12-20T00:41:16;126.47;;;66.20;;
5690;SDS011;2870;42.680;23.364;2023-12-20T00:43:43;130.30;;;66.50;;
5690;SDS011;2870;42.680;23.364;2023-12-20T00:46:09;141.00;;;69.65;;
5690;SDS011;2870;42.680;23.364;2023-12-20T00:48:36;144.77;;;71.07;;
5690;SDS011;2870;42.680;23.364;2023-12-20T00:51:02;138.90;;;72.13;;
5690;SDS011;2870;42.680;23.364;2023-12-20T00:53:31;145.85;;;75.45;;
5690;SDS011;2870;42.680;23.364;2023-12-20T00:55:57;133.27;;;69.95;;
5690;SDS011;2870;42.680;23.364;2023-12-20T00:58:24;151.35;;;75.25;;
5690;SDS011;2870;42.680;23.364;2023-12-20T01:00:51;193.50;;;95.50;;
5690;SDS011;2870;42.680;23.364;2023-12-20T01:03:18;198.77;;;95.35;;
5690;SDS011;2870;42.680;23.364;2023-12-20T01:05:45;174.57;;;86.72;;
5690;SDS011;2870;42.680;23.364;2023-12-20T01:08:11;158.15;;;81.40;;
5690;SDS011;2870;42.680;23.364;2023-12-20T01:10:40;213.07;;;102.30;;
5690;SDS011;2870;42.680;23.364;2023-12-20T01:13:06;231.73;;;107.13;;
5690;SDS011;2870;42.680;23.364;2023-12-20T01:15:34;236.02;;;115.10;;
5690;SDS011;2870;42.680;23.364;2023-12-20T01:18:00;255.85;;;116.85;;
5690;SDS011;2870;42.680;23.364;2023-12-20T01:20:27;293.75;;;137.93;;
5690;SDS011;2870;42.680;23.364;2023-12-20T01:22:54;279.77;;;129.57;;
5690;SDS011;2870;42.680;23.364;2023-12-20T01:25:20;329.30;;;141.80;;
5690;SDS011;2870;42.680;23.364;2023-12-20T01:27:48;312.60;;;139.73;;
5690;SDS011;2870;42.680;23.364;2023-12-20T01:30:15;318.63;;;142.00;;
5690;SDS011;2870;42.680;23.364;2023-12-20T01:32:41;313.88;;;140.52;;
5690;SDS011;2870;42.680;23.364;2023-12-20T01:35:08;279.98;;;123.65;;
5690;SDS011;2870;42.680;23.364;2023-12-20T01:37:34;249.60;;;119.47;;
5690;SDS011;2870;42.680;23.364;2023-12-20T01:40:01;267.02;;;119.97;;
5690;SDS011;2870;42.680;23.364;2023-12-20T01:42:27;233.23;;;109.75;;
5690;SDS011;2870;42.680;23.364;2023-12-20T01:44:56;239.75;;;108.47;;
5690;SDS011;2870;42.680;23.364;2023-12-20T01:47:22;238.10;;;106.65;;
5690;SDS011;2870;42.680;23.364;2023-12-20T01:49:49;245.55;;;105.38;;
5690;SDS011;2870;42.680;23.364;2023-12-20T01:52:15;216.77;;;101.90;;
5690;SDS011;2870;42.680;23.364;2023-12-20T01:54:42;213.60;;;95.43;;
5690;SDS011;2870;42.680;23.364;2023-12-20T01:57:09;200.95;;;97.47;;
5690;SDS011;2870;42.680;23.364;2023-12-20T01:59:37;189.23;;;96.93;;
5690;SDS011;2870;42.680;23.364;2023-12-20T02:02:06;200.80;;;92.32;;
5690;SDS011;2870;42.680;23.364;2023-12-20T02:04:33;205.48;;;97.05;;
5690;SDS011;2870;42.680;23.364;2023-12-20T02:07:00;202.25;;;95.00;;
5690;SDS011;2870;42.680;23.364;2023-12-20T02:09:27;191.02;;;97.18;;
5690;SDS011;2870;42.680;23.364;2023-12-20T02:11:54;192.40;;;93.43;;
5690;SDS011;2870;42.680;23.364;2023-12-20T02:14:20;190.02;;;89.82;;
5690;SDS011;2870;42.680;23.364;2023-12-20T02:16:47;187.00;;;88.53;;
5690;SDS011;2870;42.680;23.364;2023-12-20T02:19:15;174.60;;;88.97;;
5690;SDS011;2870;42.680;23.364;2023-12-20T02:21:43;167.95;;;83.22;;
5690;SDS011;2870;42.680;23.364;2023-12-20T02:24:09;161.55;;;81.63;;
5690;SDS011;2870;42.680;23.364;2023-12-20T02:26:36;182.30;;;88.93;;
5690;SDS011;2870;42.680;23.364;2023-12-20T02:29:02;162.25;;;82.55;;
5690;SDS011;2870;42.680;23.364;2023-12-20T02:31:29;170.35;;;86.95;;
5690;SDS011;2870;42.680;23.364;2023-12-20T02:33:55;174.00;;;85.63;;
5690;SDS011;2870;42.680;23.364;2023-12-20T02:36:21;165.32;;;82.03;;
5690;SDS011;2870;42.680;23.364;2023-12-20T02:38:49;160.30;;;81.45;;
5690;SDS011;2870;42.680;23.364;2023-12-20T02:41:16;164.18;;;79.50;;
5690;SDS011;2870;42.680;23.364;2023-12-20T02:43:43;170.25;;;82.38;;
5690;SDS011;2870;42.680;23.364;2023-12-20T02:46:09;160.70;;;82.10;;
5690;SDS011;2870;42.680;23.364;2023-12-20T02:48:36;162.60;;;75.80;;
5690;SDS011;2870;42.680;23.364;2023-12-20T02:51:02;170.70;;;83.82;;
5690;SDS011;2870;42.680;23.364;2023-12-20T02:53:29;159.55;;;78.38;;
5690;SDS011;2870;42.680;23.364;2023-12-20T02:55:57;136.18;;;71.55;;
5690;SDS011;2870;42.680;23.364;2023-12-20T02:58:23;124.95;;;66.55;;
5690;SDS011;2870;42.680;23.364;2023-12-20T03:03:53;125.32;;;62.63;;
5690;SDS011;2870;42.680;23.364;2023-12-20T03:06:19;125.57;;;61.75;;
5690;SDS011;2870;42.680;23.364;2023-12-20T03:08:46;121.85;;;60.05;;
5690;SDS011;2870;42.680;23.364;2023-12-20T03:11:14;103.80;;;55.75;;
5690;SDS011;2870;42.680;23.364;2023-12-20T03:13:40;115.75;;;57.67;;
5690;SDS011;2870;42.680;23.364;2023-12-20T03:16:10;116.18;;;54.65;;
5690;SDS011;2870;42.680;23.364;2023-12-20T03:18:36;103.88;;;54.60;;
5690;SDS011;2870;42.680;23.364;2023-12-20T03:21:03;106.72;;;51.42;;
5690;SDS011;2870;42.680;23.364;2023-12-20T03:23:30;106.63;;;50.72;;
5690;SDS011;2870;42.680;23.364;2023-12-20T03:25:57;94.18;;;49.25;;
5690;SDS011;2870;42.680;23.364;2023-12-20T03:28:25;106.25;;;49.35;;
5690;SDS011;2870;42.680;23.364;2023-12-20T03:30:52;89.68;;;47.85;;
5690;SDS011;2870;42.680;23.364;2023-12-20T03:33:19;84.85;;;45.10;;
5690;SDS011;2870;42.680;23.364;2023-12-20T03:35:45;73.95;;;36.60;;
5690;SDS011;2870;42.680;23.364;2023-12-20T03:38:12;63.95;;;36.28;;
5690;SDS011;2870;42.680;23.364;2023-12-20T03:40:38;71.97;;;35.42;;
5690;SDS011;2870;42.680;23.364;2023-12-20T03:43:04;71.70;;;34.20;;
5690;SDS011;2870;42.680;23.364;2023-12-20T03:45:33;71.30;;;35.70;;
5690;SDS011;2870;42.680;23.364;2023-12-20T03:47:59;77.50;;;37.25;;
5690;SDS011;2870;42.680;23.364;2023-12-20T03:50:26;71.70;;;36.85;;
5690;SDS011;2870;42.680;23.364;2023-12-20T03:52:53;77.40;;;39.58;;
5690;SDS011;2870;42.680;23.364;2023-12-20T03:55:19;70.05;;;37.00;;
5690;SDS011;2870;42.680;23.364;2023-12-20T03:57:45;74.18;;;39.10;;
5690;SDS011;2870;42.680;23.364;2023-12-20T04:00:12;59.50;;;31.90;;
5690;SDS011;2870;42.680;23.364;2023-12-20T04:02:41;59.13;;;36.38;;
5690;SDS011;2870;42.680;23.364;2023-12-20T04:05:08;77.65;;;36.78;;
5690;SDS011;2870;42.680;23.364;2023-12-20T04:07:35;66.28;;;36.05;;
5690;SDS011;2870;42.680;23.364;2023-12-20T04:10:01;81.00;;;38.75;;
5690;SDS011;2870;42.680;23.364;2023-12-20T04:12:29;64.40;;;35.53;;
5690;SDS011;2870;42.680;23.364;2023-12-20T04:14:55;77.32;;;37.20;;
5690;SDS011;2870;42.680;23.364;2023-12-20T04:17:22;77.72;;;42.17;;
5690;SDS011;2870;42.680;23.364;2023-12-20T04:19:50;76.32;;;40.78;;
5690;SDS011;2870;42.680;23.364;2023-12-20T04:22:16;75.90;;;40.72;;
5690;SDS011;2870;42.680;23.364;2023-12-20T04:24:43;81.28;;;42.22;;
5690;SDS011;2870;42.680;23.364;2023-12-20T04:27:09;72.70;;;41.10;;
5690;SDS011;2870;42.680;23.364;2023-12-20T04:29:36;84.03;;;41.90;;
5690;SDS011;2870;42.680;23.364;2023-12-20T04:32:03;87.85;;;44.33;;
5690;SDS011;2870;42.680;23.364;2023-12-20T04:34:29;101.60;;;49.53;;
5690;SDS011;2870;42.680;23.364;2023-12-20T04:36:57;99.97;;;50.30;;
5690;SDS011;2870;42.680;23.364;2023-12-20T04:39:24;113.05;;;51.58;;
5690;SDS011;2870;42.680;23.364;2023-12-20T04:41:50;107.30;;;52.97;;
5690;SDS011;2870;42.680;23.364;2023-12-20T04:44:16;108.78;;;50.40;;
5690;SDS011;2870;42.680;23.364;2023-12-20T04:46:43;109.05;;;51.33;;
5690;SDS011;2870;42.680;23.364;2023-12-20T04:49:09;113.57;;;48.67;;
5690;SDS011;2870;42.680;23.364;2023-12-20T04:51:36;101.75;;;50.58;;
5690;SDS011;2870;42.680;23.364;2023-12-20T04:54:04;90.85;;;46.60;;
5690;SDS011;2870;42.680;23.364;2023-12-20T04:56:31;90.20;;;45.45;;
5690;SDS011;2870;42.680;23.364;2023-12-20T04:58:57;93.18;;;44.55;;
5690;SDS011;2870;42.680;23.364;2023-12-20T05:01:24;99.88;;;45.17;;
5690;SDS011;2870;42.680;23.364;2023-12-20T05:03:50;141.93;;;46.67;;
5690;SDS011;2870;42.680;23.364;2023-12-20T05:06:17;111.63;;;45.42;;
5690;SDS011;2870;42.680;23.364;2023-12-20T05:08:43;90.07;;;41.10;;
5690;SDS011;2870;42.680;23.364;2023-12-20T05:11:11;94.07;;;43.08;;
5690;SDS011;2870;42.680;23.364;2023-12-20T05:13:39;100.00;;;41.17;;
5690;SDS011;2870;42.680;23.364;2023-12-20T05:16:06;86.85;;;41.78;;
5690;SDS011;2870;42.680;23.364;2023-12-20T05:18:32;78.65;;;40.55;;
5690;SDS011;2870;42.680;23.364;2023-12-20T05:20:59;101.75;;;40.05;;
5690;SDS011;2870;42.680;23.364;2023-12-20T05:23:25;92.95;;;41.67;;
5690;SDS011;2870;42.680;23.364;2023-12-20T05:25:51;72.68;;;37.38;;
5690;SDS011;2870;42.680;23.364;2023-12-20T05:28:19;69.30;;;39.75;;
5690;SDS011;2870;42.680;23.364;2023-12-20T05:30:48;93.95;;;41.13;;
5690;SDS011;2870;42.680;23.364;2023-12-20T05:33:15;88.20;;;40.97;;
5690;SDS011;2870;42.680;23.364;2023-12-20T05:35:41;104.22;;;43.55;;
5690;SDS011;2870;42.680;23.364;2023-12-20T05:38:08;93.47;;;43.67;;
5690;SDS011;2870;42.680;23.364;2023-12-20T05:40:34;96.30;;;43.83;;
5690;SDS011;2870;42.680;23.364;2023-12-20T05:43:01;103.00;;;43.03;;
5690;SDS011;2870;42.680;23.364;2023-12-20T05:45:29;114.03;;;45.42;;
5690;SDS011;2870;42.680;23.364;2023-12-20T05:47:55;101.32;;;43.25;;
5690;SDS011;2870;42.680;23.364;2023-12-20T05:50:22;115.10;;;42.13;;
5690;SDS011;2870;42.680;23.364;2023-12-20T05:52:48;83.45;;;36.05;;
5690;SDS011;2870;42.680;23.364;2023-12-20T05:55:15;90.15;;;38.50;;
5690;SDS011;2870;42.680;23.364;2023-12-20T05:57:42;65.35;;;29.30;;
5690;SDS011;2870;42.680;23.364;2023-12-20T06:00:09;98.97;;;34.03;;
5690;SDS011;2870;42.680;23.364;2023-12-20T06:02:37;66.57;;;29.48;;
5690;SDS011;2870;42.680;23.364;2023-12-20T06:05:04;70.00;;;30.17;;
5690;SDS011;2870;42.680;23.364;2023-12-20T06:07:30;59.72;;;30.52;;
5690;SDS011;2870;42.680;23.364;2023-12-20T06:09:57;101.28;;;28.30;;
5690;SDS011;2870;42.680;23.364;2023-12-20T06:12:23;73.45;;;27.85;;
5690;SDS011;2870;42.680;23.364;2023-12-20T06:14:52;93.10;;;27.65;;
5690;SDS011;2870;42.680;23.364;2023-12-20T06:17:18;133.85;;;28.58;;
5690;SDS011;2870;42.680;23.364;2023-12-20T06:19:46;96.75;;;29.02;;
5690;SDS011;2870;42.680;23.364;2023-12-20T06:22:13;77.05;;;29.90;;
5690;SDS011;2870;42.680;23.364;2023-12-20T06:24:39;118.38;;;27.67;;
5690;SDS011;2870;42.680;23.364;2023-12-20T06:27:06;56.40;;;25.63;;
5690;SDS011;2870;42.680;23.364;2023-12-20T06:29:32;67.70;;;27.55;;
5690;SDS011;2870;42.680;23.364;2023-12-20T06:32:00;60.85;;;27.08;;
5690;SDS011;2870;42.680;23.364;2023-12-20T06:34:26;85.47;;;28.45;;
5690;SDS011;2870;42.680;23.364;2023-12-20T06:36:54;72.07;;;28.90;;
5690;SDS011;2870;42.680;23.364;2023-12-20T06:39:20;67.80;;;28.50;;
5690;SDS011;2870;42.680;23.364;2023-12-20T06:41:47;84.05;;;29.48;;
5690;SDS011;2870;42.680;23.364;2023-12-20T06:44:13;64.75;;;26.88;;
5690;SDS011;2870;42.680;23.364;2023-12-20T06:46:40;68.55;;;27.55;;
5690;SDS011;2870;42.680;23.364;2023-12-20T06:49:06;61.42;;;27.63;;
5690;SDS011;2870;42.680;23.364;2023-12-20T06:51:33;59.90;;;28.30;;
5690;SDS011;2870;42.680;23.364;2023-12-20T06:54:01;57.58;;;26.00;;
5690;SDS011;2870;42.680;23.364;2023-12-20T06:56:27;69.70;;;28.48;;
5690;SDS011;2870;42.680;23.364;2023-12-20T06:58:54;53.50;;;26.77;;
5690;SDS011;2870;42.680;23.364;2023-12-20T07:01:20;54.05;;;28.48;;
5690;SDS011;2870;42.680;23.364;2023-12-20T07:03:47;65.72;;;28.80;;
5690;SDS011;2870;42.680;23.364;2023-12-20T07:06:14;64.43;;;27.70;;
5690;SDS011;2870;42.680;23.364;2023-12-20T07:08:41;53.95;;;30.58;;
5690;SDS011;2870;42.680;23.364;2023-12-20T07:11:09;74.93;;;31.52;;
5690;SDS011;2870;42.680;23.364;2023-12-20T07:13:35;58.42;;;29.38;;
5690;SDS011;2870;42.680;23.364;2023-12-20T07:16:02;62.50;;;30.20;;
5690;SDS011;2870;42.680;23.364;2023-12-20T07:18:29;55.20;;;29.98;;
5690;SDS011;2870;42.680;23.364;2023-12-20T07:20:55;57.75;;;29.40;;
5690;SDS011;2870;42.680;23.364;2023-12-20T07:23:22;59.88;;;30.10;;
5690;SDS011;2870;42.680;23.364;2023-12-20T07:25:48;62.78;;;30.70;;
5690;SDS011;2870;42.680;23.364;2023-12-20T07:28:16;58.28;;;30.10;;
5690;SDS011;2870;42.680;23.364;2023-12-20T07:30:42;68.25;;;29.67;;
5690;SDS011;2870;42.680;23.364;2023-12-20T07:33:09;60.85;;;30.98;;
5690;SDS011;2870;42.680;23.364;2023-12-20T07:35:37;62.50;;;29.40;;
5690;SDS011;2870;42.680;23.364;2023-12-20T07:38:03;54.97;;;28.27;;
5690;SDS011;2870;42.680;23.364;2023-12-20T07:40:30;61.17;;;29.80;;
5690;SDS011;2870;42.680;23.364;2023-12-20T07:42:56;66.47;;;31.20;;
5690;SDS011;2870;42.680;23.364;2023-12-20T07:45:24;67.35;;;31.33;;
5690;SDS011;2870;42.680;23.364;2023-12-20T07:47:51;70.22;;;31.67;;
5690;SDS011;2870;42.680;23.364;2023-12-20T07:50:17;72.72;;;32.90;;
5690;SDS011;2870;42.680;23.364;2023-12-20T07:52:44;65.97;;;33.35;;
5690;SDS011;2870;42.680;23.364;2023-12-20T07:55:10;65.88;;;32.00;;
5690;SDS011;2870;42.680;23.364;2023-12-20T07:57:37;65.60;;;30.02;;
5690;SDS011;2870;42.680;23.364;2023-12-20T08:00:04;52.78;;;28.60;;
5690;SDS011;2870;42.680;23.364;2023-12-20T08:02:32;58.70;;;30.10;;
5690;SDS011;2870;42.680;23.364;2023-12-20T08:04:58;60.53;;;30.17;;
5690;SDS011;2870;42.680;23.364;2023-12-20T08:07:25;61.35;;;28.50;;
5690;SDS011;2870;42.680;23.364;2023-12-20T08:09:51;61.28;;;30.98;;
5690;SDS011;2870;42.680;23.364;2023-12-20T08:12:19;62.17;;;33.50;;
5690;SDS011;2870;42.680;23.364;2023-12-20T08:14:46;60.90;;;29.80;;
5690;SDS011;2870;42.680;23.364;2023-12-20T08:17:12;56.00;;;29.25;;
5690;SDS011;2870;42.680;23.364;2023-12-20T08:19:42;55.47;;;30.60;;
5690;SDS011;2870;42.680;23.364;2023-12-20T08:22:09;69.07;;;31.88;;
5690;SDS011;2870;42.680;23.364;2023-12-20T08:24:35;72.32;;;32.05;;
5690;SDS011;2870;42.680;23.364;2023-12-20T08:27:02;67.80;;;35.40;;
5690;SDS011;2870;42.680;23.364;2023-12-20T08:29:28;81.00;;;34.45;;
5690;SDS011;2870;42.680;23.364;2023-12-20T08:31:55;75.47;;;32.47;;
5690;SDS011;2870;42.680;23.364;2023-12-20T08:34:22;63.22;;;30.08;;
5690;SDS011;2870;42.680;23.364;2023-12-20T08:36:50;66.97;;;33.60;;
5690;SDS011;2870;42.680;23.364;2023-12-20T08:39:17;69.70;;;31.02;;
5690;SDS011;2870;42.680;23.364;2023-12-20T08:41:43;74.13;;;32.53;;
5690;SDS011;2870;42.680;23.364;2023-12-20T08:44:10;70.30;;;31.38;;
5690;SDS011;2870;42.680;23.364;2023-12-20T08:46:36;75.05;;;33.13;;
5690;SDS011;2870;42.680;23.364;2023-12-20T08:49:02;71.78;;;32.05;;
5690;SDS011;2870;42.680;23.364;2023-12-20T08:51:30;65.78;;;30.33;;
5690;SDS011;2870;42.680;23.364;2023-12-20T08:53:58;83.65;;;34.28;;
5690;SDS011;2870;42.680;23.364;2023-12-20T08:56:24;97.35;;;37.17;;
5690;SDS011;2870;42.680;23.364;2023-12-20T08:58:51;85.10;;;36.10;;
5690;SDS011;2870;42.680;23.364;2023-12-20T09:01:17;126.32;;;38.20;;
5690;SDS011;2870;42.680;23.364;2023-12-20T09:03:43;83.15;;;36.95;;
5690;SDS011;2870;42.680;23.364;2023-12-20T09:06:10;101.63;;;34.70;;
5690;SDS011;2870;42.680;23.364;2023-12-20T09:08:36;72.55;;;34.92;;
5690;SDS011;2870;42.680;23.364;2023-12-20T09:11:04;70.93;;;31.58;;
5690;SDS011;2870;42.680;23.364;2023-12-20T09:13:31;75.50;;;35.10;;
5690;SDS011;2870;42.680;23.364;2023-12-20T09:15:57;74.25;;;34.20;;
5690;SDS011;2870;42.680;23.364;2023-12-20T09:18:24;73.82;;;31.80;;
5690;SDS011;2870;42.680;23.364;2023-12-20T09:20:51;90.70;;;36.15;;
5690;SDS011;2870;42.680;23.364;2023-12-20T09:23:17;75.40;;;34.97;;
5690;SDS011;2870;42.680;23.364;2023-12-20T09:25:43;76.60;;;34.35;;
5690;SDS011;2870;42.680;23.364;2023-12-20T09:28:12;77.18;;;33.67;;
5690;SDS011;2870;42.680;23.364;2023-12-20T09:30:38;105.07;;;38.83;;
5690;SDS011;2870;42.680;23.364;2023-12-20T09:33:05;92.18;;;37.83;;
5690;SDS011;2870;42.680;23.364;2023-12-20T09:35:32;82.53;;;37.30;;
5690;SDS011;2870;42.680;23.364;2023-12-20T09:37:58;99.97;;;39.58;;
5690;SDS011;2870;42.680;23.364;2023-12-20T09:40:25;108.28;;;40.78;;
5690;SDS011;2870;42.680;23.364;2023-12-20T09:42:55;90.57;;;36.35;;
5690;SDS011;2870;42.680;23.364;2023-12-20T09:45:24;98.60;;;39.45;;
5690;SDS011;2870;42.680;23.364;2023-12-20T09:47:50;124.65;;;39.88;;
5690;SDS011;2870;42.680;23.364;2023-12-20T09:50:18;102.85;;;39.60;;
5690;SDS011;2870;42.680;23.364;2023-12-20T09:52:46;80.43;;;35.47;;
5690;SDS011;2870;42.680;23.364;2023-12-20T09:55:13;80.10;;;34.28;;
5690;SDS011;2870;42.680;23.364;2023-12-20T09:57:40;80.90;;;33.90;;
5690;SDS011;2870;42.680;23.364;2023-12-20T10:00:07;82.60;;;35.97;;
5690;SDS011;2870;42.680;23.364;2023-12-20T10:02:35;88.82;;;36.65;;
5690;SDS011;2870;42.680;23.364;2023-12-20T10:05:06;89.30;;;36.05;;
5690;SDS011;2870;42.680;23.364;2023-12-20T10:07:34;101.75;;;39.55;;
5690;SDS011;2870;42.680;23.364;2023-12-20T10:10:01;89.65;;;37.35;;
5690;SDS011;2870;42.680;23.364;2023-12-20T10:12:28;82.95;;;38.83;;
5690;SDS011;2870;42.680;23.364;2023-12-20T10:14:54;96.63;;;37.43;;
5690;SDS011;2870;42.680;23.364;2023-12-20T10:17:21;110.60;;;39.08;;
5690;SDS011;2870;42.680;23.364;2023-12-20T10:20:07;97.77;;;37.23;;
5690;SDS011;2870;42.680;23.364;2023-12-20T10:22:35;83.23;;;36.60;;
5690;SDS011;2870;42.680;23.364;2023-12-20T10:25:03;93.40;;;37.37;;
5690;SDS011;2870;42.680;23.364;2023-12-20T10:27:29;94.83;;;38.93;;
5690;SDS011;2870;42.680;23.364;2023-12-20T10:29:58;89.27;;;38.97;;
5690;SDS011;2870;42.680;23.364;2023-12-20T10:32:25;90.43;;;40.07;;
5690;SDS011;2870;42.680;23.364;2023-12-20T10:34:52;81.20;;;38.90;;
5690;SDS011;2870;42.680;23.364;2023-12-20T10:37:20;87.90;;;39.73;;
5690;SDS011;2870;42.680;23.364;2023-12-20T10:39:47;81.67;;;39.20;;
5690;SDS011;2870;42.680;23.364;2023-12-20T10:42:15;84.40;;;39.60;;
5690;SDS011;2870;42.680;23.364;2023-12-20T10:44:42;85.27;;;39.27;;
5690;SDS011;2870;42.680;23.364;2023-12-20T10:47:09;100.33;;;40.37;;
5690;SDS011;2870;42.680;23.364;2023-12-20T10:49:38;100.20;;;41.23;;
5690;SDS011;2870;42.680;23.364;2023-12-20T10:52:05;85.20;;;41.17;;
5690;SDS011;2870;42.680;23.364;2023-12-20T10:54:33;98.30;;;44.17;;
5690;SDS011;2870;42.680;23.364;2023-12-20T10:57:00;101.47;;;43.30;;
5690;SDS011;2870;42.680;23.364;2023-12-20T10:59:26;89.13;;;42.30;;
5690;SDS011;2870;42.680;23.364;2023-12-20T11:01:54;110.17;;;48.20;;
5690;SDS011;2870;42.680;23.364;2023-12-20T11:04:22;99.07;;;46.13;;
5690;SDS011;2870;42.680;23.364;2023-12-20T11:06:52;101.63;;;47.00;;
5690;SDS011;2870;42.680;23.364;2023-12-20T11:09:22;92.87;;;44.47;;
5690;SDS011;2870;42.680;23.364;2023-12-20T11:11:55;102.10;;;45.33;;
5690;SDS011;2870;42.680;23.364;2023-12-20T11:14:23;99.77;;;41.47;;
5690;SDS011;2870;42.680;23.364;2023-12-20T11:16:51;89.30;;;44.30;;
5690;SDS011;2870;42.680;23.364;2023-12-20T11:19:31;78.53;;;38.93;;
5690;SDS011;2870;42.680;23.364;2023-12-20T11:21:57;84.43;;;38.57;;
5690;SDS011;2870;42.680;23.364;2023-12-20T11:24:24;90.50;;;40.40;;
5690;SDS011;2870;42.680;23.364;2023-12-20T11:26:51;82.17;;;38.37;;
5690;SDS011;2870;42.680;23.364;2023-12-20T11:29:34;92.90;;;38.33;;
5690;SDS011;2870;42.680;23.364;2023-12-20T11:32:27;83.80;;;38.80;;
5690;SDS011;2870;42.680;23.364;2023-12-20T11:34:53;83.63;;;39.30;;
5690;SDS011;2870;42.680;23.364;2023-12-20T11:37:20;86.70;;;40.00;;
5690;SDS011;2870;42.680;23.364;2023-12-20T11:39:53;78.30;;;41.43;;
5690;SDS011;2870;42.680;23.364;2023-12-20T11:42:19;91.23;;;40.77;;
5690;SDS011;2870;42.680;23.364;2023-12-20T11:44:48;95.50;;;41.50;;
5690;SDS011;2870;42.680;23.364;2023-12-20T11:47:16;91.60;;;38.80;;
5690;SDS011;2870;42.680;23.364;2023-12-20T11:49:44;90.27;;;42.73;;
5690;SDS011;2870;42.680;23.364;2023-12-20T11:52:11;102.17;;;44.33;;
5690;SDS011;2870;42.680;23.364;2023-12-20T11:54:38;113.90;;;44.93;;
5690;SDS011;2870;42.680;23.364;2023-12-20T11:57:04;89.73;;;41.47;;
5690;SDS011;2870;42.680;23.364;2023-12-20T11:59:31;109.60;;;46.40;;
5690;SDS011;2870;42.680;23.364;2023-12-20T12:01:59;95.33;;;43.43;;
5690;SDS011;2870;42.680;23.364;2023-12-20T12:04:26;105.53;;;46.73;;
5690;SDS011;2870;42.680;23.364;2023-12-20T12:06:53;106.13;;;45.67;;
5690;SDS011;2870;42.680;23.364;2023-12-20T12:09:19;104.40;;;44.20;;
5690;SDS011;2870;42.680;23.364;2023-12-20T12:11:46;107.73;;;44.40;;
5690;SDS011;2870;42.680;23.364;2023-12-20T12:14:13;118.87;;;46.47;;
5690;SDS011;2870;42.680;23.364;2023-12-20T12:16:39;106.57;;;42.00;;
5690;SDS011;2870;42.680;23.364;2023-12-20T12:19:10;100.03;;;43.20;;
5690;SDS011;2870;42.680;23.364;2023-12-20T12:21:45;105.97;;;43.13;;
5690;SDS011;2870;42.680;23.364;2023-12-20T12:24:12;99.93;;;41.20;;
5690;SDS011;2870;42.680;23.364;2023-12-20T12:26:39;99.03;;;45.03;;
5690;SDS011;2870;42.680;23.364;2023-12-20T12:29:06;107.10;;;44.30;;
5690;SDS011;2870;42.680;23.364;2023-12-20T12:31:33;115.07;;;48.97;;
5690;SDS011;2870;42.680;23.364;2023-12-20T12:34:00;92.00;;;43.10;;
5690;SDS011;2870;42.680;23.364;2023-12-20T12:36:29;111.03;;;47.07;;
5690;SDS011;2870;42.680;23.364;2023-12-20T12:38:56;110.03;;;44.80;;
5690;SDS011;2870;42.680;23.364;2023-12-20T12:41:22;93.80;;;42.87;;
5690;SDS011;2870;42.680;23.364;2023-12-20T12:43:49;101.67;;;46.10;;
5690;SDS011;2870;42.680;23.364;2023-12-20T12:46:15;95.37;;;43.00;;
5690;SDS011;2870;42.680;23.364;2023-12-20T12:48:42;93.97;;;40.00;;
5690;SDS011;2870;42.680;23.364;2023-12-20T12:51:09;104.00;;;41.97;;
5690;SDS011;2870;42.680;23.364;2023-12-20T12:53:39;97.73;;;43.90;;
5690;SDS011;2870;42.680;23.364;2023-12-20T12:56:06;101.70;;;45.23;;
5690;SDS011;2870;42.680;23.364;2023-12-20T12:58:33;101.00;;;46.67;;
5690;SDS011;2870;42.680;23.364;2023-12-20T13:00:59;121.27;;;45.67;;
5690;SDS011;2870;42.680;23.364;2023-12-20T13:03:26;117.60;;;48.47;;
5690;SDS011;2870;42.680;23.364;2023-12-20T13:05:52;134.23;;;58.07;;
5690;SDS011;2870;42.680;23.364;2023-12-20T13:08:19;160.10;;;66.60;;
5690;SDS011;2870;42.680;23.364;2023-12-20T13:10:47;168.57;;;67.70;;
5690;SDS011;2870;42.680;23.364;2023-12-20T13:13:13;145.20;;;56.07;;
5690;SDS011;2870;42.680;23.364;2023-12-20T13:15:40;112.90;;;50.50;;
5690;SDS011;2870;42.680;23.364;2023-12-20T13:18:13;122.53;;;52.27;;
5690;SDS011;2870;42.680;23.364;2023-12-20T13:20:39;117.17;;;50.40;;
5690;SDS011;2870;42.680;23.364;2023-12-20T13:23:06;114.93;;;47.67;;
5690;SDS011;2870;42.680;23.364;2023-12-20T13:25:32;124.93;;;43.67;;
5690;SDS011;2870;42.680;23.364;2023-12-20T13:28:00;111.73;;;47.47;;
5690;SDS011;2870;42.680;23.364;2023-12-20T13:30:27;92.50;;;42.00;;
5690;SDS011;2870;42.680;23.364;2023-12-20T13:32:54;97.30;;;40.67;;
5690;SDS011;2870;42.680;23.364;2023-12-20T13:35:20;106.23;;;43.97;;
5690;SDS011;2870;42.680;23.364;2023-12-20T13:37:47;110.50;;;39.17;;
5690;SDS011;2870;42.680;23.364;2023-12-20T13:40:13;94.47;;;39.27;;
5690;SDS011;2870;42.680;23.364;2023-12-20T13:42:40;92.33;;;40.27;;
5690;SDS011;2870;42.680;23.364;2023-12-20T13:45:09;92.03;;;39.90;;
5690;SDS011;2870;42.680;23.364;2023-12-20T13:47:35;99.27;;;38.13;;
5690;SDS011;2870;42.680;23.364;2023-12-20T13:50:02;75.50;;;35.87;;
5690;SDS011;2870;42.680;23.364;2023-12-20T13:52:29;93.57;;;38.20;;
5690;SDS011;2870;42.680;23.364;2023-12-20T13:54:55;87.10;;;36.43;;
5690;SDS011;2870;42.680;23.364;2023-12-20T13:57:22;96.93;;;37.40;;
5690;SDS011;2870;42.680;23.364;2023-12-20T13:59:48;86.83;;;38.03;;
5690;SDS011;2870;42.680;23.364;2023-12-20T14:02:16;90.77;;;36.03;;
5690;SDS011;2870;42.680;23.364;2023-12-20T14:04:42;87.13;;;36.23;;
5690;SDS011;2870;42.680;23.364;2023-12-20T14:07:09;85.33;;;35.00;;
5690;SDS011;2870;42.680;23.364;2023-12-20T14:09:35;72.60;;;34.70;;
5690;SDS011;2870;42.680;23.364;2023-12-20T14:12:02;87.93;;;36.37;;
5690;SDS011;2870;42.680;23.364;2023-12-20T14:14:29;91.77;;;38.97;;
5690;SDS011;2870;42.680;23.364;2023-12-20T14:16:55;100.03;;;42.07;;
5690;SDS011;2870;42.680;23.364;2023-12-20T14:19:23;110.77;;;42.90;;
5690;SDS011;2870;42.680;23.364;2023-12-20T14:21:49;108.13;;;42.53;;
5690;SDS011;2870;42.680;23.364;2023-12-20T14:24:16;103.80;;;43.20;;
5690;SDS011;2870;42.680;23.364;2023-12-20T14:26:42;113.03;;;42.87;;
5690;SDS011;2870;42.680;23.364;2023-12-20T14:29:09;112.30;;;42.27;;
5690;SDS011;2870;42.680;23.364;2023-12-20T14:31:35;129.83;;;44.43;;